Waterville, ME

2:26 PM EDT on August 18, 2017 (GMT -0400)
Waterville Lafleur | | Change Station

Elev 331 ft 44.53 °N, 69.68 °W | Updated 4 minutes ago

Rain
Rain Mist
63 °F
Feels Like 63 °F
N
4
Wind Variable Wind from Variable

Today
High -- | Low -- °F
--% Chance of Precip.
Yesterday
High -- | Low -- °F
Precip. -- in
Pressure 29.94 in
Visibility 2.5 miles
Clouds Few 600 ft
Mostly Cloudy 2300 ft
Overcast 3300 ft
Dew Point 61 °F
Humidity 94%
Rainfall 0.11 in
Snow Depth Not available.
5:45 AM 7:38 PM
Waning Crescent, 12% visible
SPECI KWVL 181822Z AUTO VRB03KT 2 1/2SM RA BR FEW006 BKN023 OVC033 17/16 A2994 RMK AO2 VIS 2 1/2V3 P0002
Pressure 29.94 in
Visibility 2.5 miles
Clouds Few 600 ft
Mostly Cloudy 2300 ft
Overcast 3300 ft
Dew Point 61 °F
Humidity 94%
Rainfall 0.11 in
Snow Depth Not available.
5:45 AM 7:38 PM
Waning Crescent, 12% visible
SPECI KWVL 181822Z AUTO VRB03KT 2 1/2SM RA BR FEW006 BKN023 OVC033 17/16 A2994 RMK AO2 VIS 2 1/2V3 P0002

Get Severe Weather Alerts

Thanks for signing up!

Be on the lookout for a verification email in your inbox.

You'll start receiving the daily forecast at 6 AM.

×

10-Day Weather Forecast

Almanac

Astronomy

Aug. 18, 2017 Rise Set
Actual Time
Civil Twilight
Nautical Twilight
Astronomical Twilight
Moon
Length of Visible Light
Length of Day
Tomorrow will be .
, % of the Moon is Illuminated

Today's Extremes

State Highs State Lows

Community

WunderPhotos

Category 6

Welcome to Category 6. This is the collective home for Weather Underground's featured writeups by Dr. Jeff Masters (right), Bob Henson (left), Chris Burt, and other regular contributors.

Nearby

Air Quality

  Air Quality AQ Index Pollutant
Not available.

Snow Depth

Station Depth Elevation

Earthquake Activity

City Distance Mag. Time & Date
Minimum magnitude displayed is 2.5.

Coastal Water Temperatures

Place Temperature

Stations

Nearby Weather Stations

Station Location Temp. Windchill Dew Point Humidity Wind Precip. Elev Updated Type
                   

Watches & Warnings

There are currently no watches in effect.